»·PEaware :: DCAAA KLAS-KBUR

DCAAA :: KLAS-KBUR

FLIGHT INFORMATION

Flight Status: Arrived
Operator: Unknown
More flights by this operator :: More flights under this callsign
Pilot: Klaus A. (15485)
Aircraft: BOMBARDIER BD-100 CHALLENGER 300
(CL30)
More flights by this aircraft type
Origin: KLAS McCarran Intl
United States
Destination: KBUR Bob Hope-Burbank
United States
More flights between these airports :: More routes between these airports
Route: +BOACH8 HEC LYNXX8
File this flight plan on PilotEdge
Remarks: / L Newbie Custom Weather
Altitude:
(Current/Filed)
32,000ft
Speed:
(Current/Filed)
300kts
Departed: 06-Jan-18 10:37 AM
Arrived: 06-Jan-18 11:32 AM
Distance/Time
Traveled:
194nm/0:54
Distance/Time
To Go:
Arrived

Flight Plot

Page will automatically refresh every two minutes.

Flight plan parsing failed; only flown route is shown


Map Options




Map Legend


Flown Route
Filed Route
Departure Airport
Arrival Airport
Navaid (VOR, NDB)
Fix

Horizontal Profiles

Position Reports

Time Latitude Longitude Heading Altitude Ground
Speed
06-Jan-18 09:53 36.081997 -115.171630 0 2147ft 0kts
06-Jan-18 09:54 36.081997 -115.171630 0 2147ft 0kts
06-Jan-18 09:55 36.081997 -115.171630 0 2147ft 0kts
06-Jan-18 09:56 36.081997 -115.171630 0 2147ft 0kts
06-Jan-18 09:57 36.081997 -115.171630 0 2147ft 0kts
06-Jan-18 09:58 36.081997 -115.171630 0 2147ft 0kts
06-Jan-18 09:59 36.081997 -115.171630 0 2147ft 0kts
06-Jan-18 10:00 36.081997 -115.171630 0 2147ft 0kts
06-Jan-18 10:01 36.081997 -115.171630 0 2147ft 0kts
06-Jan-18 10:02 36.081997 -115.171630 0 2147ft 0kts
06-Jan-18 10:03 36.081997 -115.171630 0 2147ft 0kts
06-Jan-18 10:04 36.081997 -115.171630 0 2147ft 0kts
06-Jan-18 10:05 36.081997 -115.171630 0 2147ft 0kts
06-Jan-18 10:06 36.081997 -115.171630 0 2147ft 0kts
06-Jan-18 10:07 36.081997 -115.171630 0 2147ft 0kts
06-Jan-18 10:08 36.081997 -115.171630 0 2147ft 0kts
06-Jan-18 10:09 36.081997 -115.171630 0 2147ft 0kts
06-Jan-18 10:10 36.081997 -115.171630 0 2147ft 0kts
06-Jan-18 10:11 36.081997 -115.171630 0 2147ft 0kts
06-Jan-18 10:12 36.081997 -115.171630 0 2147ft 0kts
06-Jan-18 10:13 36.081997 -115.171630 0 2147ft 0kts
06-Jan-18 10:14 36.081997 -115.171630 0 2147ft 0kts
06-Jan-18 10:15 36.081997 -115.171630 0 2147ft 0kts
06-Jan-18 10:16 36.081997 -115.171630 0 2147ft 0kts
06-Jan-18 10:17 36.081997 -115.171630 0 2147ft 0kts
06-Jan-18 10:18 36.081997 -115.171630 0 2147ft 0kts
06-Jan-18 10:19 36.081997 -115.171630 0 2147ft 0kts
06-Jan-18 10:20 36.081997 -115.171630 0 2147ft 0kts
06-Jan-18 10:21 36.081997 -115.171630 0 2147ft 0kts
06-Jan-18 10:22 36.081997 -115.171630 0 2147ft 0kts
06-Jan-18 10:23 36.081997 -115.171630 0 2147ft 0kts
06-Jan-18 10:24 36.081997 -115.171630 0 2147ft 0kts
06-Jan-18 10:25 36.081997 -115.171630 0 2147ft 0kts
06-Jan-18 10:26 36.081997 -115.171630 0 2147ft 0kts
06-Jan-18 10:27 36.081997 -115.171630 0 2147ft 0kts
06-Jan-18 10:28 36.081997 -115.171630 0 2147ft 0kts
06-Jan-18 10:29 36.081997 -115.171630 0 2147ft 0kts
06-Jan-18 10:30 36.081997 -115.171630 0 2147ft 0kts
06-Jan-18 10:31 36.081997 -115.171630 0 2147ft 0kts
06-Jan-18 10:32 36.081531 -115.171603 339 2147ft 3kts
06-Jan-18 10:33 36.081381 -115.171343 308 2148ft 1kts
06-Jan-18 10:34 36.081466 -115.170350 85 2148ft 12kts
06-Jan-18 10:35 36.082659 -115.168063 76 2148ft 11kts
06-Jan-18 10:36 36.086434 -115.165537 25 2148ft 22kts
06-Jan-18 10:37 36.090645 -115.163109 25 2148ft 12kts
06-Jan-18 10:38 36.095641 -115.160260 24 2148ft 26kts
06-Jan-18 10:39 36.099045 -115.157972 105 2148ft 0kts
06-Jan-18 10:40 36.099045 -115.157972 105 2148ft 0kts
06-Jan-18 10:41 36.099045 -115.157972 105 2148ft 0kts
06-Jan-18 10:42 36.098300 -115.157227 201 2148ft 6kts
06-Jan-18 10:43 36.065051 -115.176804 205 3605ft 189kts
06-Jan-18 10:44 36.011839 -115.208550 217 6180ft 241kts
06-Jan-18 10:45 35.974250 -115.284452 242 8334ft 276kts
06-Jan-18 10:46 35.937818 -115.369197 242 10840ft 288kts
06-Jan-18 10:47 35.895636 -115.459331 224 13297ft 342kts
06-Jan-18 10:48 35.803564 -115.446643 151 15811ft 385kts
06-Jan-18 10:49 35.713616 -115.379436 154 18285ft 373kts
06-Jan-18 10:50 35.618249 -115.344179 209 19547ft 366kts
06-Jan-18 10:51 35.560550 -115.435787 238 22024ft 337kts
06-Jan-18 10:52 35.501373 -115.527183 234 24506ft 358kts
06-Jan-18 10:53 35.434422 -115.620577 232 26975ft 366kts
06-Jan-18 10:54 35.379079 -115.695320 230 29113ft 362kts
06-Jan-18 10:55 35.311344 -115.785846 230 31834ft 361kts
06-Jan-18 10:56 35.241764 -115.878385 230 32215ft 402kts
06-Jan-18 10:57 35.168085 -115.975892 230 32207ft 400kts
06-Jan-18 10:58 35.093176 -116.074760 230 32206ft 398kts
06-Jan-18 10:59 35.017715 -116.174093 230 32203ft 400kts
06-Jan-18 11:00 34.942304 -116.273061 230 31827ft 400kts
06-Jan-18 11:01 34.879651 -116.355093 229 29837ft 408kts
06-Jan-18 11:02 34.807131 -116.459776 250 27204ft 410kts
06-Jan-18 11:03 34.786516 -116.593444 262 24661ft 378kts
06-Jan-18 11:04 34.774829 -116.697431 262 24075ft 350kts
06-Jan-18 11:05 34.762092 -116.820467 262 22629ft 380kts
06-Jan-18 11:06 34.749842 -116.941443 262 21113ft 346kts
06-Jan-18 11:07 34.738149 -117.056584 262 19445ft 344kts
06-Jan-18 11:08 34.726538 -117.170069 262 17939ft 333kts
06-Jan-18 11:09 34.715245 -117.279688 262 16429ft 324kts
06-Jan-18 11:10 34.704104 -117.386703 261 14912ft 314kts
06-Jan-18 11:11 34.693395 -117.488794 261 13990ft 289kts
06-Jan-18 11:12 34.683074 -117.586277 261 13997ft 294kts
06-Jan-18 11:13 34.672883 -117.681856 261 13947ft 295kts
06-Jan-18 11:14 34.662357 -117.779914 261 13946ft 290kts
06-Jan-18 11:15 34.651966 -117.875947 261 13946ft 285kts
06-Jan-18 11:16 34.641608 -117.970908 261 13945ft 282kts
06-Jan-18 11:17 34.631497 -118.060546 256 13953ft 252kts
06-Jan-18 11:18 34.614783 -118.137662 254 12320ft 240kts
06-Jan-18 11:19 34.597693 -118.215067 254 10177ft 237kts
06-Jan-18 11:20 34.580420 -118.292526 256 8105ft 245kts
06-Jan-18 11:21 34.563461 -118.368427 256 7971ft 229kts
06-Jan-18 11:22 34.546869 -118.442408 256 7971ft 226kts
06-Jan-18 11:23 34.514639 -118.502641 222 7459ft 218kts
06-Jan-18 11:24 34.470379 -118.547195 222 6223ft 199kts
06-Jan-18 11:25 34.431916 -118.585488 222 6002ft 174kts
06-Jan-18 11:26 34.395203 -118.622743 222 6044ft 170kts
06-Jan-18 11:27 34.361030 -118.659425 221 5999ft 170kts
06-Jan-18 11:28 34.323883 -118.694454 185 6006ft 177kts
06-Jan-18 11:29 34.276678 -118.686043 171 6004ft 175kts
06-Jan-18 11:30 34.228677 -118.676557 171 5999ft 174kts
06-Jan-18 11:31 34.194309 -118.638237 121 5239ft 178kts
06-Jan-18 11:32 34.183981 -118.588450 39 3913ft 159kts
06-Jan-18 11:33 34.203672 -118.552827 98 3093ft 136kts
06-Jan-18 11:34 34.200414 -118.506830 93 3013ft 141kts
06-Jan-18 11:35 34.199217 -118.463043 91 2339ft 128kts
06-Jan-18 11:36 34.198642 -118.424498 90 1723ft 127kts
06-Jan-18 11:37 34.198037 -118.382320 85 1050ft 124kts
06-Jan-18 11:38 34.197748 -118.353011 95 784ft 13kts
06-Jan-18 11:39 34.197149 -118.355200 270 784ft 4kts
06-Jan-18 11:40 34.196687 -118.355516 165 784ft 6kts
06-Jan-18 11:41 34.195283 -118.354969 69 783ft 0kts
06-Jan-18 11:42 34.195283 -118.354969 69 783ft 0kts
06-Jan-18 11:43 34.195283 -118.354969 69 783ft 0kts
06-Jan-18 11:44 34.195283 -118.354969 69 783ft 0kts
06-Jan-18 11:45 34.195283 -118.354969 69 783ft 0kts
06-Jan-18 11:46 34.195283 -118.354969 69 783ft 0kts
06-Jan-18 11:47 34.195283 -118.354969 69 783ft 0kts
06-Jan-18 11:48 34.195283 -118.354969 69 783ft 0kts
06-Jan-18 11:49 34.195283 -118.354969 69 783ft 0kts
06-Jan-18 11:50 34.195283 -118.354969 69 783ft 0kts

Navigation Log

Ident Type
Flight plan parsing failed, navigation log unavailable